Friday, March 6, 2015, 2:59 PM EST

KJYO, Leesburg / Godfrey

Location: Leesburg, VA, United States Lat: 39.083
Local Time: 2:59 PM EST (19:59 GMT) Lon: -77.567
Time Zone: US/Eastern Elev: 390 ft

Show me the last for .
Show Decoded

2015-03-06 14:35 METAR KJYO 061935Z AUTO 00000KT 10SM CLR M03/M14 A3049 RMK AO2 P0003 =
2015-03-06 13:55 METAR KJYO 061855Z AUTO 00000KT 10SM CLR M04/M14 A3051 RMK AO2 P0003 =
2015-03-06 13:35 METAR KJYO 061835Z AUTO 33005KT 10SM CLR M04/M13 A3053 RMK AO2 =
2015-03-06 13:15 METAR KJYO 061815Z AUTO 32004KT 10SM CLR M05/M13 A3054 RMK AO2 =
2015-03-06 12:55 METAR KJYO 061755Z AUTO 32004KT 10SM CLR M05/M14 A3056 RMK AO2 P0001 =
2015-03-06 12:35 METAR KJYO 061735Z AUTO 33005KT 10SM CLR M05/M13 A3056 RMK AO2 P0001 =
2015-03-06 12:15 METAR KJYO 061715Z AUTO 31003KT 10SM CLR M05/M14 A3057 RMK AO2 =
2015-03-06 11:55 METAR KJYO 061655Z AUTO 32005KT 10SM CLR M06/M13 A3058 RMK AO2 =
2015-03-06 11:35 METAR KJYO 061635Z AUTO 32004KT 10SM CLR M06/M13 A3058 RMK AO2 =
2015-03-06 11:15 METAR KJYO 061615Z AUTO 31005KT 10SM CLR M06/M13 A3059 RMK AO2 =
2015-03-06 10:55 METAR KJYO 061555Z AUTO 33006KT 10SM CLR M07/M14 A3059 RMK AO2 =
2015-03-06 10:35 METAR KJYO 061535Z AUTO 32006KT 10SM CLR M07/M15 A3060 RMK AO2 =
2015-03-06 10:15 METAR KJYO 061515Z AUTO 32003KT 10SM CLR M07/M15 A3062 RMK AO2 =
2015-03-06 09:55 METAR KJYO 061455Z AUTO 33003KT 10SM CLR M08/M15 A3062 RMK AO2 =
2015-03-06 09:35 METAR KJYO 061435Z AUTO 35006KT 10SM CLR M08/M15 A3062 RMK AO2 =
2015-03-06 09:15 METAR KJYO 061415Z AUTO 34007KT 10SM CLR M09/M15 A3062 RMK AO2 =
2015-03-06 08:55 METAR KJYO 061355Z AUTO 34008KT 10SM CLR M09/M15 A3062 RMK AO2 =
2015-03-06 08:35 METAR KJYO 061335Z AUTO 35008KT 10SM CLR M10/M15 A3062 RMK AO2 =
2015-03-06 08:15 METAR KJYO 061315Z AUTO 34006KT 10SM CLR M10/M15 A3061 RMK AO2 =
2015-03-06 07:55 METAR KJYO 061255Z AUTO 35003KT 10SM CLR M11/M16 A3060 RMK AO2 =
2015-03-06 07:35 METAR KJYO 061235Z AUTO 34003KT 10SM CLR M11/M16 A3059 RMK AO2 =
2015-03-06 07:15 METAR KJYO 061215Z AUTO 33008KT 10SM CLR M12/M16 A3057 RMK AO2 =
2015-03-06 06:55 METAR KJYO 061155Z AUTO 35005KT 10SM CLR M12/M16 A3057 RMK AO2 =
2015-03-06 06:35 METAR KJYO 061135Z AUTO 36006KT 10SM CLR M11/M16 A3057 RMK AO2 =
2015-03-06 06:15 METAR KJYO 061115Z AUTO 01005KT 10SM CLR M11/M16 A3057 RMK AO2 =
2015-03-06 05:55 METAR KJYO 061055Z AUTO 33009KT 10SM CLR M11/M16 A3057 RMK AO2 =
2015-03-06 05:35 METAR KJYO 061035Z AUTO 33007KT 10SM CLR M12/M16 A3056 RMK AO2 =
2015-03-06 05:15 METAR KJYO 061015Z AUTO 34006KT 10SM CLR M11/M16 A3056 RMK AO2 =
2015-03-06 04:55 METAR KJYO 060955Z AUTO 32008KT 10SM CLR M10/M16 A3054 RMK AO2 =
2015-03-06 04:35 METAR KJYO 060935Z AUTO 32005KT 10SM CLR M11/M16 A3053 RMK AO2 =
2015-03-06 04:15 METAR KJYO 060915Z AUTO 35005KT 10SM CLR M10/M15 A3052 RMK AO2 =
2015-03-06 03:55 METAR KJYO 060855Z AUTO 36005G14KT 10SM CLR M10/M15 A3050 RMK AO2 =
2015-03-06 03:35 METAR KJYO 060835Z AUTO 34014G18KT 10SM CLR M09/M15 A3049 RMK AO2 =
2015-03-06 03:15 METAR KJYO 060815Z AUTO 00000KT 10SM CLR M09/M15 A3050 RMK AO2 =
2015-03-06 02:55 METAR KJYO 060755Z AUTO 08004KT 10SM CLR M09/M15 A3050 RMK AO2 =
2015-03-06 02:35 METAR KJYO 060735Z AUTO 32010KT 10SM CLR M09/M15 A3048 RMK AO2 =
2015-03-06 02:15 METAR KJYO 060715Z AUTO 32016KT 10SM CLR M09/M15 A3049 RMK AO2 =
2015-03-06 01:35 METAR KJYO 060635Z AUTO 00000KT 10SM CLR M08/M15 A3049 RMK AO2 =
2015-03-06 01:15 METAR KJYO 060615Z AUTO 04005KT 10SM CLR M08/M15 A3048 RMK AO2 =
2015-03-06 00:55 METAR KJYO 060555Z AUTO 05006G15KT 10SM CLR M07/M14 A3047 RMK AO2 =
2015-03-06 00:35 METAR KJYO 060535Z AUTO 01003KT 10SM CLR M07/M13 A3046 RMK AO2 =
2015-03-06 00:15 METAR KJYO 060515Z AUTO 34005KT 10SM CLR M07/M13 A3046 RMK AO2 =
2015-03-05 23:55 METAR KJYO 060455Z AUTO 33010KT 10SM CLR M07/M13 A3047 RMK AO2 =
2015-03-05 23:35 METAR KJYO 060435Z AUTO 36006KT 10SM CLR M06/M12 A3047 RMK AO2 =
2015-03-05 22:55 METAR KJYO 060355Z AUTO 34008G15KT 10SM CLR M06/M11 A3046 RMK AO2 =
2015-03-05 22:35 METAR KJYO 060335Z AUTO 33007KT 10SM SCT120 M05/M11 A3046 RMK AO2 =
2015-03-05 22:15 METAR KJYO 060315Z AUTO 35012G16KT 10SM BKN120 M05/M11 A3045 RMK AO2 =
2015-03-05 21:55 METAR KJYO 060255Z AUTO 34012KT 10SM BKN110 M05/M10 A3044 RMK AO2 =
2015-03-05 21:35 METAR KJYO 060235Z AUTO 34012G15KT 10SM BKN110 M05/M09 A3042 RMK AO2 =
2015-03-05 21:15 METAR KJYO 060215Z AUTO 35009KT 10SM OVC110 M04/M08 A3041 RMK AO2 =
2015-03-05 20:35 METAR KJYO 060135Z AUTO 35009KT 10SM SCT085 OVC100 M04/M08 A3039 RMK AO2 =
2015-03-05 20:15 METAR KJYO 060115Z AUTO 35008KT 10SM BKN070 OVC100 M04/M07 A3038 RMK AO2 =
2015-03-05 19:55 METAR KJYO 060055Z AUTO 34014G17KT 10SM -SN SCT075 OVC090 M04/M07 A3036 RMK AO2
                 =
2015-03-05 19:35 METAR KJYO 060035Z AUTO 34011KT 10SM -SN OVC090 M03/M06 A3036 RMK AO2 =
2015-03-05 19:15 METAR KJYO 060015Z AUTO 34012G15KT 10SM OVC080 M03/M06 A3034 RMK AO2 =
2015-03-05 18:55 METAR KJYO 052355Z AUTO 34006KT 10SM OVC080 M03/M06 A3033 RMK AO2 =
2015-03-05 18:35 METAR KJYO 052335Z AUTO 35008KT 10SM OVC090 M03/M06 A3033 RMK AO2 =
2015-03-05 18:15 METAR KJYO 052315Z AUTO 35010G15KT 10SM OVC090 M03/M05 A3031 RMK AO2 =
2015-03-05 17:35 METAR KJYO 052235Z AUTO 34012G16KT 7SM SCT048 BKN060 OVC080 M03/M05 A3028 RMK
                 AO2 =
2015-03-05 17:15 METAR KJYO 052215Z AUTO 35009KT 4SM BR SCT012 SCT019 OVC045 M03/M04 A3027 RMK
                 AO2 =
2015-03-05 16:55 METAR KJYO 052155Z AUTO 34010KT 7SM -SN BKN046 OVC050 M03/M03 A3026 RMK AO2 =
2015-03-05 16:35 METAR KJYO 052135Z AUTO 33008KT 4SM -SN SCT026 SCT037 OVC050 M03/M03 A3026 RMK
                 AO2 =
2015-03-05 16:15 METAR KJYO 052115Z AUTO 34006KT 1 3/4SM -SN BKN012 BKN024 OVC028 M03/M03 A3023
                 RMK AO2 =
2015-03-05 15:55 METAR KJYO 052055Z AUTO 34012G15KT 3/4SM -SN BKN008 OVC012 M03/M03 A3024 RMK AO2
                 =
2015-03-05 15:35 METAR KJYO 052035Z AUTO 01007KT 1/2SM SN OVC008 M03/M03 A3021 RMK AO2 =
2015-03-05 15:15 METAR KJYO 052015Z AUTO 35004KT 1/2SM SN OVC008 M03/M03 A3021 RMK AO2 =

Support USWX by starting your Amazon purchase here.